sensor_id;sensor_type;location;lat;lon;timestamp;pressure;altitude;pressure_sealevel;temperature;humidity
12913;BME280;6524;51.368;11.984;2022-12-18T00:01:22;101911.75;;;-7.01;87.34
12913;BME280;6524;51.368;11.984;2022-12-18T00:06:24;101918.75;;;-7.10;86.39
12913;BME280;6524;51.368;11.984;2022-12-18T00:11:27;101917.59;;;-7.15;85.05
12913;BME280;6524;51.368;11.984;2022-12-18T00:16:28;101910.19;;;-7.26;85.13
12913;BME280;6524;51.368;11.984;2022-12-18T00:21:31;101912.31;;;-7.32;85.53
12913;BME280;6524;51.368;11.984;2022-12-18T00:26:33;101917.97;;;-7.36;84.09
12913;BME280;6524;51.368;11.984;2022-12-18T00:31:34;101904.53;;;-7.35;83.94
12913;BME280;6524;51.368;11.984;2022-12-18T00:36:35;101904.91;;;-7.42;82.31
12913;BME280;6524;51.368;11.984;2022-12-18T00:41:35;101902.31;;;-7.69;82.37
12913;BME280;6524;51.368;11.984;2022-12-18T00:47:01;101911.44;;;-7.84;83.50
12913;BME280;6524;51.368;11.984;2022-12-18T00:52:02;101911.44;;;-7.84;82.47
12913;BME280;6524;51.368;11.984;2022-12-18T00:57:02;101919.41;;;-7.91;80.94
12913;BME280;6524;51.368;11.984;2022-12-18T05:05:02;101987.22;;;-10.42;81.19
12913;BME280;6524;51.368;11.984;2022-12-18T05:10:06;101994.41;;;-10.03;80.44
12913;BME280;6524;51.368;11.984;2022-12-18T05:15:07;102006.09;;;-10.37;80.94
12913;BME280;6524;51.368;11.984;2022-12-18T05:20:08;101995.97;;;-10.15;80.36
12913;BME280;6524;51.368;11.984;2022-12-18T05:25:08;101996.50;;;-10.19;80.86
12913;BME280;6524;51.368;11.984;2022-12-18T05:30:09;102002.91;;;-10.13;79.42
12913;BME280;6524;51.368;11.984;2022-12-18T05:35:10;102007.22;;;-10.22;78.75
12913;BME280;6524;51.368;11.984;2022-12-18T05:40:11;102014.66;;;-10.35;79.04
12913;BME280;6524;51.368;11.984;2022-12-18T05:45:11;102024.09;;;-10.65;79.78
12913;BME280;6524;51.368;11.984;2022-12-18T05:50:12;102012.97;;;-10.57;80.01
12913;BME280;6524;51.368;11.984;2022-12-18T05:55:12;102024.25;;;-10.41;79.59
12913;BME280;6524;51.368;11.984;2022-12-18T06:00:13;102030.59;;;-10.46;78.74
12913;BME280;6524;51.368;11.984;2022-12-18T06:05:13;102036.41;;;-10.58;78.28
12913;BME280;6524;51.368;11.984;2022-12-18T06:10:13;102026.59;;;-10.55;78.83
12913;BME280;6524;51.368;11.984;2022-12-18T06:15:14;102035.94;;;-10.64;78.68
12913;BME280;6524;51.368;11.984;2022-12-18T06:20:15;102035.16;;;-10.53;78.81
12913;BME280;6524;51.368;11.984;2022-12-18T06:25:17;102039.38;;;-10.41;79.05
12913;BME280;6524;51.368;11.984;2022-12-18T06:30:18;102034.34;;;-10.41;78.98
12913;BME280;6524;51.368;11.984;2022-12-18T06:35:18;102044.41;;;-10.41;78.59
12913;BME280;6524;51.368;11.984;2022-12-18T06:40:18;102036.63;;;-10.44;79.41
12913;BME280;6524;51.368;11.984;2022-12-18T06:45:19;102046.97;;;-10.52;78.77
12913;BME280;6524;51.368;11.984;2022-12-18T06:50:19;102039.47;;;-10.62;78.91
12913;BME280;6524;51.368;11.984;2022-12-18T06:55:20;102032.47;;;-10.86;80.01
12913;BME280;6524;51.368;11.984;2022-12-18T07:00:23;102049.22;;;-10.44;85.12
12913;BME280;6524;51.368;11.984;2022-12-18T07:05:23;102040.31;;;-10.07;82.15
12913;BME280;6524;51.368;11.984;2022-12-18T07:10:24;102052.41;;;-10.03;83.96
12913;BME280;6524;51.368;11.984;2022-12-18T07:15:24;102058.16;;;-9.72;86.72
12913;BME280;6524;51.368;11.984;2022-12-18T07:20:25;102060.09;;;-9.58;83.51
12913;BME280;6524;51.368;11.984;2022-12-18T07:25:25;102061.56;;;-9.93;82.61
12913;BME280;6524;51.368;11.984;2022-12-18T07:30:26;102060.97;;;-9.79;82.12
12913;BME280;6524;51.368;11.984;2022-12-18T07:35:29;102067.44;;;-9.61;82.98
12913;BME280;6524;51.368;11.984;2022-12-18T07:40:31;102078.50;;;-9.37;81.91
12913;BME280;6524;51.368;11.984;2022-12-18T07:45:32;102070.53;;;-9.19;80.49
12913;BME280;6524;51.368;11.984;2022-12-18T07:50:32;102082.09;;;-8.99;78.96
12913;BME280;6524;51.368;11.984;2022-12-18T07:55:33;102087.59;;;-8.93;77.85
12913;BME280;6524;51.368;11.984;2022-12-18T08:00:33;102083.16;;;-9.19;78.76
12913;BME280;6524;51.368;11.984;2022-12-18T08:05:34;102100.03;;;-8.73;80.84
12913;BME280;6524;51.368;11.984;2022-12-18T08:10:34;102109.16;;;-8.75;79.56
12913;BME280;6524;51.368;11.984;2022-12-18T08:15:56;102101.69;;;-8.73;78.86
12913;BME280;6524;51.368;11.984;2022-12-18T08:20:57;102109.16;;;-8.75;81.35
12913;BME280;6524;51.368;11.984;2022-12-18T08:25:58;102100.38;;;-8.56;83.60
12913;BME280;6524;51.368;11.984;2022-12-18T08:30:58;102105.03;;;-8.39;82.73
12913;BME280;6524;51.368;11.984;2022-12-18T08:35:59;102099.59;;;-8.20;86.92
12913;BME280;6524;51.368;11.984;2022-12-18T08:41:05;102105.59;;;-8.06;86.49
12913;BME280;6524;51.368;11.984;2022-12-18T08:46:06;102124.25;;;-7.81;87.10
12913;BME280;6524;51.368;11.984;2022-12-18T08:51:10;102117.50;;;-7.32;85.69
12913;BME280;6524;51.368;11.984;2022-12-18T09:01:39;102121.72;;;-6.94;84.17
12913;BME280;6524;51.368;11.984;2022-12-18T09:07:00;102107.53;;;-6.79;84.05
12913;BME280;6524;51.368;11.984;2022-12-18T09:12:06;102102.84;;;-6.72;84.04
12913;BME280;6524;51.368;11.984;2022-12-18T09:17:10;102099.44;;;-6.60;84.18
12913;BME280;6524;51.368;11.984;2022-12-18T09:22:10;102094.28;;;-6.48;84.98
12913;BME280;6524;51.368;11.984;2022-12-18T09:27:11;102091.66;;;-6.23;84.68
12913;BME280;6524;51.368;11.984;2022-12-18T09:32:11;102090.19;;;-6.33;83.20
12913;BME280;6524;51.368;11.984;2022-12-18T09:37:11;102081.03;;;-6.44;83.71
12913;BME280;6524;51.368;11.984;2022-12-18T09:42:20;102077.50;;;-6.19;83.26
12913;BME280;6524;51.368;11.984;2022-12-18T09:47:30;102077.09;;;-6.25;83.44
12913;BME280;6524;51.368;11.984;2022-12-18T09:52:43;102060.69;;;-6.04;84.33
12913;BME280;6524;51.368;11.984;2022-12-18T09:57:52;102054.94;;;-5.87;83.45
12913;BME280;6524;51.368;11.984;2022-12-18T10:03:17;102041.41;;;-5.72;84.38
12913;BME280;6524;51.368;11.984;2022-12-18T10:08:22;102035.97;;;-5.78;83.43
12913;BME280;6524;51.368;11.984;2022-12-18T10:24:21;102024.84;;;-5.08;83.70
12913;BME280;6524;51.368;11.984;2022-12-18T10:29:25;102030.75;;;-4.79;82.62
12913;BME280;6524;51.368;11.984;2022-12-18T10:34:25;102036.53;;;-4.82;84.01
12913;BME280;6524;51.368;11.984;2022-12-18T10:39:26;102037.78;;;-4.44;82.85
12913;BME280;6524;51.368;11.984;2022-12-18T10:44:27;102020.38;;;-4.36;81.62
12913;BME280;6524;51.368;11.984;2022-12-18T10:49:49;102028.00;;;-4.36;82.62
12913;BME280;6524;51.368;11.984;2022-12-18T10:54:59;102028.88;;;-4.05;82.70
12913;BME280;6524;51.368;11.984;2022-12-18T11:00:30;102020.03;;;-3.95;81.89
12913;BME280;6524;51.368;11.984;2022-12-18T11:05:54;102022.34;;;-3.34;81.00
12913;BME280;6524;51.368;11.984;2022-12-18T11:11:28;102016.06;;;-3.07;79.61
12913;BME280;6524;51.368;11.984;2022-12-18T11:22:23;102038.94;;;-2.38;77.20
12913;BME280;6524;51.368;11.984;2022-12-18T11:27:26;102034.78;;;-2.17;76.33
12913;BME280;6524;51.368;11.984;2022-12-18T11:32:34;102029.69;;;-2.17;76.70
12913;BME280;6524;51.368;11.984;2022-12-18T11:37:36;102034.28;;;-2.10;77.18
12913;BME280;6524;51.368;11.984;2022-12-18T11:53:03;102013.53;;;-0.77;70.25
12913;BME280;6524;51.368;11.984;2022-12-18T11:58:16;101995.09;;;-0.68;70.52
12913;BME280;6524;51.368;11.984;2022-12-18T12:03:27;101998.41;;;-0.50;70.58
12913;BME280;6524;51.368;11.984;2022-12-18T12:09:00;101994.31;;;-0.44;69.73
12913;BME280;6524;51.368;11.984;2022-12-18T12:14:27;101976.22;;;-1.13;71.28
12913;BME280;6524;51.368;11.984;2022-12-18T12:19:58;101973.44;;;-1.39;72.23
12913;BME280;6524;51.368;11.984;2022-12-18T12:40:51;101966.63;;;-1.79;75.75
12913;BME280;6524;51.368;11.984;2022-12-18T12:46:05;101977.47;;;-1.25;76.47
12913;BME280;6524;51.368;11.984;2022-12-18T12:56:22;101949.88;;;-0.45;72.64
12913;BME280;6524;51.368;11.984;2022-12-18T13:01:53;101947.28;;;-0.22;71.94
12913;BME280;6524;51.368;11.984;2022-12-18T13:07:56;101927.56;;;-0.01;71.08
12913;BME280;6524;51.368;11.984;2022-12-18T13:13:36;101924.19;;;-0.69;73.71
12913;BME280;6524;51.368;11.984;2022-12-18T13:18:20;101930.50;;;-1.04;75.27
12913;BME280;6524;51.368;11.984;2022-12-18T13:33:46;101920.28;;;-1.04;76.63
12913;BME280;6524;51.368;11.984;2022-12-18T13:38:47;101922.03;;;-1.45;78.23
12913;BME280;6524;51.368;11.984;2022-12-18T13:44:11;101914.03;;;-1.11;78.07
12913;BME280;6524;51.368;11.984;2022-12-18T13:54:19;101899.53;;;-1.94;81.28
12913;BME280;6524;51.368;11.984;2022-12-18T13:59:23;101896.16;;;-1.93;81.99
12913;BME280;6524;51.368;11.984;2022-12-18T14:04:30;101902.88;;;-1.95;82.45
12913;BME280;6524;51.368;11.984;2022-12-18T14:09:35;101906.91;;;-1.81;81.45
12913;BME280;6524;51.368;11.984;2022-12-18T14:14:36;101904.88;;;-2.28;83.06
12913;BME280;6524;51.368;11.984;2022-12-18T14:19:36;101909.88;;;-2.30;83.64
12913;BME280;6524;51.368;11.984;2022-12-18T14:24:37;101902.31;;;-2.28;84.07
12913;BME280;6524;51.368;11.984;2022-12-18T14:29:42;101897.13;;;-2.49;84.59
12913;BME280;6524;51.368;11.984;2022-12-18T14:34:52;101886.22;;;-2.26;84.06
12913;BME280;6524;51.368;11.984;2022-12-18T14:39:58;101887.56;;;-2.53;83.92
12913;BME280;6524;51.368;11.984;2022-12-18T14:45:39;101908.56;;;-2.96;85.54
12913;BME280;6524;51.368;11.984;2022-12-18T14:50:41;101909.34;;;-2.42;83.05
12913;BME280;6524;51.368;11.984;2022-12-18T14:55:46;101885.72;;;-2.38;82.85
12913;BME280;6524;51.368;11.984;2022-12-18T15:00:52;101894.88;;;-2.42;83.30
12913;BME280;6524;51.368;11.984;2022-12-18T15:05:53;101900.75;;;-2.44;82.58
12913;BME280;6524;51.368;11.984;2022-12-18T15:10:55;101921.22;;;-2.62;83.29
12913;BME280;6524;51.368;11.984;2022-12-18T15:16:01;101919.63;;;-2.78;84.31
12913;BME280;6524;51.368;11.984;2022-12-18T15:21:09;101903.31;;;-2.44;82.64
12913;BME280;6524;51.368;11.984;2022-12-18T15:26:13;101889.59;;;-2.27;81.42
12913;BME280;6524;51.368;11.984;2022-12-18T15:36:18;101894.81;;;-2.63;81.65
12913;BME280;6524;51.368;11.984;2022-12-18T15:41:25;101900.81;;;-2.80;83.77
12913;BME280;6524;51.368;11.984;2022-12-18T15:46:26;101876.34;;;-2.94;83.11
12913;BME280;6524;51.368;11.984;2022-12-18T15:51:34;101884.78;;;-2.77;82.34
12913;BME280;6524;51.368;11.984;2022-12-18T15:56:35;101881.75;;;-2.88;83.29
12913;BME280;6524;51.368;11.984;2022-12-18T16:01:54;101891.47;;;-2.80;83.43
12913;BME280;6524;51.368;11.984;2022-12-18T16:06:55;101896.47;;;-3.00;83.05
12913;BME280;6524;51.368;11.984;2022-12-18T16:11:55;101884.22;;;-3.43;85.01
12913;BME280;6524;51.368;11.984;2022-12-18T16:17:00;101865.13;;;-3.16;84.89
12913;BME280;6524;51.368;11.984;2022-12-18T16:22:28;101863.78;;;-2.72;82.50
12913;BME280;6524;51.368;11.984;2022-12-18T16:27:49;101851.72;;;-3.12;83.72
12913;BME280;6524;51.368;11.984;2022-12-18T16:32:55;101842.97;;;-3.17;84.31
12913;BME280;6524;51.368;11.984;2022-12-18T16:37:56;101838.44;;;-3.05;83.74
12913;BME280;6524;51.368;11.984;2022-12-18T16:42:57;101822.41;;;-3.20;85.03
12913;BME280;6524;51.368;11.984;2022-12-18T16:47:57;101829.50;;;-3.32;85.58
12913;BME280;6524;51.368;11.984;2022-12-18T16:52:58;101799.69;;;-2.97;84.40
12913;BME280;6524;51.368;11.984;2022-12-18T16:58:01;101798.69;;;-3.19;84.39
12913;BME280;6524;51.368;11.984;2022-12-18T17:03:05;101795.66;;;-3.47;85.60
12913;BME280;6524;51.368;11.984;2022-12-18T17:08:06;101788.34;;;-3.22;85.58
12913;BME280;6524;51.368;11.984;2022-12-18T17:13:06;101803.66;;;-3.22;85.17
12913;BME280;6524;51.368;11.984;2022-12-18T17:18:09;101803.69;;;-3.03;85.31
12913;BME280;6524;51.368;11.984;2022-12-18T17:23:09;101816.56;;;-2.99;84.38
12913;BME280;6524;51.368;11.984;2022-12-18T17:28:10;101809.41;;;-2.89;84.68
12913;BME280;6524;51.368;11.984;2022-12-18T17:33:11;101805.22;;;-3.06;85.30
12913;BME280;6524;51.368;11.984;2022-12-18T17:38:11;101794.56;;;-2.97;85.00
12913;BME280;6524;51.368;11.984;2022-12-18T17:43:11;101787.56;;;-3.02;84.56
12913;BME280;6524;51.368;11.984;2022-12-18T17:48:12;101781.28;;;-2.90;85.19
12913;BME280;6524;51.368;11.984;2022-12-18T17:53:12;101772.25;;;-2.82;84.31
12913;BME280;6524;51.368;11.984;2022-12-18T17:58:12;101775.63;;;-2.64;84.47
12913;BME280;6524;51.368;11.984;2022-12-18T18:03:13;101766.47;;;-3.17;86.59
12913;BME280;6524;51.368;11.984;2022-12-18T18:08:13;101767.28;;;-2.98;86.40
12913;BME280;6524;51.368;11.984;2022-12-18T18:13:19;101775.91;;;-2.96;86.25
12913;BME280;6524;51.368;11.984;2022-12-18T18:18:38;101764.38;;;-2.88;85.02
12913;BME280;6524;51.368;11.984;2022-12-18T18:23:39;101761.81;;;-2.88;85.00
12913;BME280;6524;51.368;11.984;2022-12-18T18:28:39;101749.84;;;-2.70;84.93
12913;BME280;6524;51.368;11.984;2022-12-18T18:33:40;101753.75;;;-2.78;84.31
12913;BME280;6524;51.368;11.984;2022-12-18T18:38:40;101734.53;;;-2.50;83.03
12913;BME280;6524;51.368;11.984;2022-12-18T18:43:41;101730.63;;;-2.62;83.45
12913;BME280;6524;51.368;11.984;2022-12-18T18:48:41;101718.53;;;-2.46;82.86
12913;BME280;6524;51.368;11.984;2022-12-18T18:53:44;101720.25;;;-2.45;82.97
12913;BME280;6524;51.368;11.984;2022-12-18T18:58:44;101723.50;;;-2.49;82.42
12913;BME280;6524;51.368;11.984;2022-12-18T19:03:45;101713.53;;;-2.43;83.19
12913;BME280;6524;51.368;11.984;2022-12-18T19:08:46;101706.19;;;-2.57;83.32
12913;BME280;6524;51.368;11.984;2022-12-18T19:13:47;101691.03;;;-2.92;84.18
12913;BME280;6524;51.368;11.984;2022-12-18T19:18:47;101696.75;;;-2.58;82.61
12913;BME280;6524;51.368;11.984;2022-12-18T19:23:48;101679.28;;;-2.69;83.74
12913;BME280;6524;51.368;11.984;2022-12-18T19:28:48;101665.72;;;-2.47;82.31
12913;BME280;6524;51.368;11.984;2022-12-18T19:33:49;101677.81;;;-2.43;82.48
12913;BME280;6524;51.368;11.984;2022-12-18T19:38:50;101665.22;;;-2.39;82.86
12913;BME280;6524;51.368;11.984;2022-12-18T19:43:51;101658.19;;;-2.44;82.98
12913;BME280;6524;51.368;11.984;2022-12-18T19:48:52;101651.56;;;-2.39;82.20
12913;BME280;6524;51.368;11.984;2022-12-18T19:53:53;101642.19;;;-2.40;82.58
12913;BME280;6524;51.368;11.984;2022-12-18T19:58:54;101645.41;;;-2.23;82.08
12913;BME280;6524;51.368;11.984;2022-12-18T20:03:54;101654.03;;;-2.20;80.99
12913;BME280;6524;51.368;11.984;2022-12-18T20:08:58;101658.16;;;-2.02;80.96
12913;BME280;6524;51.368;11.984;2022-12-18T20:14:02;101654.16;;;-1.96;80.46
12913;BME280;6524;51.368;11.984;2022-12-18T20:19:06;101671.88;;;-1.78;79.64
12913;BME280;6524;51.368;11.984;2022-12-18T20:24:07;101668.28;;;-1.83;79.89
12913;BME280;6524;51.368;11.984;2022-12-18T20:29:07;101669.25;;;-1.79;79.58
12913;BME280;6524;51.368;11.984;2022-12-18T20:34:08;101667.13;;;-1.91;79.54
12913;BME280;6524;51.368;11.984;2022-12-18T20:39:09;101657.09;;;-1.85;79.64
12913;BME280;6524;51.368;11.984;2022-12-18T20:44:15;101656.72;;;-1.73;79.65
12913;BME280;6524;51.368;11.984;2022-12-18T20:49:16;101640.75;;;-1.90;80.29
12913;BME280;6524;51.368;11.984;2022-12-18T20:54:21;101624.66;;;-1.88;80.80
12913;BME280;6524;51.368;11.984;2022-12-18T20:59:22;101644.50;;;-1.58;79.95
12913;BME280;6524;51.368;11.984;2022-12-18T21:04:24;101653.88;;;-1.58;79.35
12913;BME280;6524;51.368;11.984;2022-12-18T21:09:24;101634.09;;;-1.85;80.74
12913;BME280;6524;51.368;11.984;2022-12-18T21:14:27;101629.69;;;-1.67;80.67
12913;BME280;6524;51.368;11.984;2022-12-18T21:19:28;101629.91;;;-1.60;80.40
12913;BME280;6524;51.368;11.984;2022-12-18T21:24:29;101618.88;;;-1.37;79.11
12913;BME280;6524;51.368;11.984;2022-12-18T21:29:30;101609.59;;;-1.80;80.47
12913;BME280;6524;51.368;11.984;2022-12-18T21:34:31;101609.13;;;-1.70;81.12
12913;BME280;6524;51.368;11.984;2022-12-18T21:39:32;101600.78;;;-1.66;80.96
12913;BME280;6524;51.368;11.984;2022-12-18T21:44:32;101611.56;;;-1.50;80.63
12913;BME280;6524;51.368;11.984;2022-12-18T21:49:33;101598.50;;;-1.58;80.09
12913;BME280;6524;51.368;11.984;2022-12-18T21:54:33;101615.91;;;-1.48;80.54
12913;BME280;6524;51.368;11.984;2022-12-18T21:59:39;101586.50;;;-1.35;80.19
12913;BME280;6524;51.368;11.984;2022-12-18T22:04:40;101589.78;;;-1.39;79.87
12913;BME280;6524;51.368;11.984;2022-12-18T22:09:40;101602.84;;;-1.07;78.09
12913;BME280;6524;51.368;11.984;2022-12-18T22:14:41;101600.88;;;-1.14;78.01
12913;BME280;6524;51.368;11.984;2022-12-18T22:19:41;101568.25;;;-1.22;78.76
12913;BME280;6524;51.368;11.984;2022-12-18T22:24:41;101585.31;;;-1.21;77.77
12913;BME280;6524;51.368;11.984;2022-12-18T22:29:42;101589.13;;;-1.09;77.72
12913;BME280;6524;51.368;11.984;2022-12-18T22:35:03;101590.53;;;-0.94;77.21
12913;BME280;6524;51.368;11.984;2022-12-18T22:40:05;101573.88;;;-1.06;77.78
12913;BME280;6524;51.368;11.984;2022-12-18T22:45:05;101578.00;;;-1.10;77.76
12913;BME280;6524;51.368;11.984;2022-12-18T22:50:06;101562.50;;;-0.89;77.05
12913;BME280;6524;51.368;11.984;2022-12-18T22:55:07;101552.78;;;-0.74;76.35
12913;BME280;6524;51.368;11.984;2022-12-18T23:00:08;101540.13;;;-0.95;76.99
12913;BME280;6524;51.368;11.984;2022-12-18T23:05:08;101529.75;;;-1.25;77.49
12913;BME280;6524;51.368;11.984;2022-12-18T23:10:09;101514.31;;;-1.28;78.22
12913;BME280;6524;51.368;11.984;2022-12-18T23:15:09;101520.66;;;-1.17;78.31
12913;BME280;6524;51.368;11.984;2022-12-18T23:20:10;101514.56;;;-1.20;77.78
12913;BME280;6524;51.368;11.984;2022-12-18T23:25:10;101496.81;;;-1.15;76.81
12913;BME280;6524;51.368;11.984;2022-12-18T23:30:11;101489.53;;;-1.29;77.52
12913;BME280;6524;51.368;11.984;2022-12-18T23:35:11;101482.69;;;-1.30;77.75
12913;BME280;6524;51.368;11.984;2022-12-18T23:40:12;101459.97;;;-1.46;77.67
12913;BME280;6524;51.368;11.984;2022-12-18T23:45:13;101457.66;;;-1.38;78.24
12913;BME280;6524;51.368;11.984;2022-12-18T23:50:13;101447.16;;;-1.22;76.74
12913;BME280;6524;51.368;11.984;2022-12-18T23:55:14;101453.09;;;-0.96;76.40
